Time;durP1;ratioP1;P1;durP2;ratioP2;P2;SDS_P1;SDS_P2;PMS_P1;PMS_P2;Temp;Humidity;BMP_temperature;BMP_pressure;BME280_temperature;BME280_humidity;BME280_pressure;Samples;Min_cycle;Max_cycle;Signal;HPM_P1;HPM_P2
2021/11/14 05:00:54;;;;;;;81.43;18.67;;;7.30;99.70;;;;;;5030181;28;20185;-68
2021/11/14 05:03:22;;;;;;;78.70;20.10;;;7.30;99.70;;;;;;5019176;28;20329;-68
2021/11/14 05:05:48;;;;;;;78.87;20.70;;;7.40;99.70;;;;;;5028936;28;20484;-69
2021/11/14 05:08:15;;;;;;;83.47;20.30;;;7.40;99.70;;;;;;5029696;28;20469;-68
2021/11/14 05:10:43;;;;;;;79.50;20.27;;;7.40;99.70;;;;;;5029820;28;21083;-68
2021/11/14 05:13:10;;;;;;;83.00;21.00;;;7.40;99.70;;;;;;5029324;28;20445;-68
2021/11/14 05:15:36;;;;;;;83.30;20.17;;;7.40;99.70;;;;;;5029951;28;20445;-71
2021/11/14 05:18:05;;;;;;;84.13;19.80;;;7.40;99.70;;;;;;5029474;28;20476;-68
2021/11/14 05:20:31;;;;;;;87.47;21.03;;;7.30;99.70;;;;;;5030170;28;20865;-68
2021/11/14 05:22:58;;;;;;;79.20;19.80;;;7.40;99.70;;;;;;5029950;28;20444;-68
2021/11/14 05:25:25;;;;;;;78.53;20.23;;;7.50;99.70;;;;;;5029973;28;20994;-69
2021/11/14 05:27:51;;;;;;;83.27;20.67;;;7.50;99.70;;;;;;5029384;28;20472;-68
2021/11/14 05:30:18;;;;;;;83.20;20.60;;;7.50;99.70;;;;;;5030157;28;20449;-68
2021/11/14 05:32:45;;;;;;;83.50;22.20;;;7.60;99.70;;;;;;5029407;28;20452;-69
2021/11/14 05:35:14;;;;;;;81.60;22.23;;;7.50;99.70;;;;;;5030021;28;20502;-68
2021/11/14 05:37:41;;;;;;;83.33;22.43;;;7.40;99.70;;;;;;5029327;28;20476;-70
2021/11/14 05:40:09;;;;;;;87.80;23.00;;;7.30;99.70;;;;;;5030031;28;21002;-68
2021/11/14 05:42:36;;;;;;;84.13;23.57;;;7.30;99.70;;;;;;5029729;28;20510;-68
2021/11/14 05:45:04;;;;;;;79.80;22.30;;;7.30;99.70;;;;;;5029995;28;20484;-71
2021/11/14 05:47:31;;;;;;;84.30;24.13;;;7.30;99.70;;;;;;5029466;28;21030;-68
2021/11/14 05:49:57;;;;;;;81.27;22.80;;;7.20;99.70;;;;;;5029876;28;20452;-68
2021/11/14 05:52:26;;;;;;;85.77;23.30;;;7.20;99.70;;;;;;5029761;28;20506;-67
2021/11/14 05:54:52;;;;;;;83.00;22.47;;;7.10;99.70;;;;;;5030050;28;20449;-68
2021/11/14 05:57:20;;;;;;;80.83;22.30;;;7.10;99.70;;;;;;5029494;28;20440;-69
2021/11/14 05:59:53;;;;;;;85.80;22.60;;;7.00;99.70;;;;;;5029859;28;20449;-68
2021/11/14 06:02:31;;;;;;;92.30;22.77;;;6.90;99.70;;;;;;5053135;22;20503;-67
2021/11/14 06:05:10;;;;;;;86.43;21.60;;;6.90;99.70;;;;;;5033196;28;20484;-67
2021/11/14 06:07:38;;;;;;;81.00;22.30;;;6.80;99.70;;;;;;5029268;28;20652;-67
2021/11/14 06:10:06;;;;;;;85.50;22.30;;;6.80;99.70;;;;;;5032455;28;21086;-67
2021/11/14 06:12:33;;;;;;;80.67;21.10;;;6.80;99.70;;;;;;5032259;28;20468;-67
2021/11/14 06:15:00;;;;;;;90.87;23.07;;;6.80;99.70;;;;;;5031969;28;20440;-68
2021/11/14 06:17:27;;;;;;;80.57;20.10;;;6.80;99.70;;;;;;5039530;28;20458;-67
2021/11/14 06:19:54;;;;;;;86.70;22.30;;;6.80;99.70;;;;;;5036643;28;20452;-69
2021/11/14 06:22:21;;;;;;;81.60;20.50;;;6.90;99.70;;;;;;5032307;28;20559;-67
2021/11/14 06:24:50;;;;;;;88.10;21.77;;;6.90;99.70;;;;;;5032963;28;20479;-68
2021/11/14 06:27:17;;;;;;;84.07;22.17;;;6.90;99.70;;;;;;5032808;28;20543;-67
2021/11/14 06:29:44;;;;;;;85.30;21.73;;;6.90;99.70;;;;;;5032804;28;20467;-68
2021/11/14 06:32:11;;;;;;;84.17;22.10;;;6.90;99.70;;;;;;5032980;28;20461;-67
2021/11/14 06:34:37;;;;;;;89.40;22.10;;;7.00;99.70;;;;;;5032651;28;20460;-68
2021/11/14 06:37:05;;;;;;;84.93;21.83;;;7.00;99.70;;;;;;5032533;28;20441;-67
2021/11/14 06:39:32;;;;;;;81.73;21.67;;;7.00;99.70;;;;;;5032577;28;20952;-68
2021/11/14 06:42:00;;;;;;;82.70;20.60;;;7.00;99.70;;;;;;5032726;28;20471;-67
2021/11/14 06:44:27;;;;;;;87.67;23.10;;;7.20;99.70;;;;;;5032179;28;20448;-68
2021/11/14 06:46:55;;;;;;;79.97;20.70;;;7.10;99.70;;;;;;5032312;28;20955;-67
2021/11/14 06:49:22;;;;;;;82.70;20.07;;;7.10;99.70;;;;;;5032481;28;20445;-68
2021/11/14 06:51:49;;;;;;;88.53;21.80;;;7.10;99.70;;;;;;5032488;28;20903;-68
2021/11/14 06:54:16;;;;;;;83.80;20.50;;;7.10;99.70;;;;;;5032523;28;20483;-68
2021/11/14 06:56:42;;;;;;;86.67;22.17;;;7.00;99.70;;;;;;5031989;28;20891;-68
2021/11/14 06:59:10;;;;;;;74.73;17.80;;;7.00;99.70;;;;;;5032576;28;20522;-68
2021/11/14 07:01:37;;;;;;;81.40;19.70;;;7.10;99.70;;;;;;5031906;28;20481;-68
2021/11/14 07:04:04;;;;;;;82.17;19.83;;;7.30;99.70;;;;;;5032224;28;20452;-68
2021/11/14 07:06:31;;;;;;;81.27;20.57;;;7.10;99.70;;;;;;5031875;28;20495;-68
2021/11/14 07:08:58;;;;;;;80.30;20.30;;;7.00;99.70;;;;;;5032171;28;20448;-68
2021/11/14 07:11:24;;;;;;;83.90;20.87;;;6.90;99.70;;;;;;5032100;28;20897;-68
2021/11/14 07:13:51;;;;;;;90.80;22.87;;;6.80;99.70;;;;;;5031786;28;20444;-68
2021/11/14 07:16:19;;;;;;;93.60;25.07;;;6.70;99.70;;;;;;5031600;28;20452;-68
2021/11/14 07:18:46;;;;;;;87.70;22.40;;;6.70;99.70;;;;;;5031736;28;20809;-68
2021/11/14 07:21:12;;;;;;;96.60;24.27;;;6.60;99.70;;;;;;5030858;28;21007;-68
2021/11/14 07:23:39;;;;;;;96.37;25.20;;;6.60;99.70;;;;;;5032005;28;20944;-68
2021/11/14 07:26:06;;;;;;;98.70;24.17;;;6.50;99.70;;;;;;5034790;28;20484;-67
2021/11/14 07:28:32;;;;;;;93.53;22.80;;;6.50;99.70;;;;;;5046096;28;20439;-67
2021/11/14 07:30:59;;;;;;;86.60;21.30;;;6.50;99.70;;;;;;5051405;28;20452;-67
2021/11/14 07:33:27;;;;;;;86.07;22.30;;;6.70;99.70;;;;;;5051496;28;20455;-68
2021/11/14 07:35:54;;;;;;;87.60;21.90;;;6.90;99.70;;;;;;5051498;28;20448;-68
2021/11/14 07:38:21;;;;;;;96.30;22.30;;;7.00;99.70;;;;;;5051052;28;20443;-67
2021/11/14 07:40:48;;;;;;;94.20;25.20;;;7.00;99.70;;;;;;5044911;28;20455;-67
2021/11/14 07:43:14;;;;;;;85.83;21.17;;;7.10;99.70;;;;;;5034019;28;20456;-68
2021/11/14 07:45:41;;;;;;;131.17;24.80;;;7.10;99.70;;;;;;5030298;28;20481;-68
2021/11/14 07:48:10;;;;;;;100.83;24.17;;;7.20;99.70;;;;;;5031113;28;20829;-67
2021/11/14 07:50:39;;;;;;;106.00;26.97;;;7.30;99.70;;;;;;5031550;28;20889;-67
2021/11/14 07:53:06;;;;;;;92.07;23.93;;;7.30;99.70;;;;;;5033825;28;20491;-68
2021/11/14 07:55:34;;;;;;;89.53;24.03;;;7.40;99.70;;;;;;5039693;28;20459;-67
2021/11/14 07:58:04;;;;;;;97.17;23.33;;;7.50;99.70;;;;;;5042466;28;20459;-68
2021/11/14 08:00:31;;;;;;;88.47;23.40;;;7.60;99.70;;;;;;5031433;28;20444;-68
2021/11/14 08:02:58;;;;;;;89.37;22.53;;;7.70;99.70;;;;;;5030811;28;20991;-68
2021/11/14 08:05:25;;;;;;;80.63;20.50;;;7.70;99.70;;;;;;5031236;28;20480;-68
2021/11/14 08:07:53;;;;;;;85.37;21.97;;;7.80;99.70;;;;;;5030759;28;20445;-68
2021/11/14 08:10:21;;;;;;;89.90;23.17;;;7.90;99.70;;;;;;5031421;28;20448;-68
2021/11/14 08:12:47;;;;;;;88.97;21.77;;;8.00;99.70;;;;;;5030459;28;21069;-68
2021/11/14 08:15:16;;;;;;;78.87;20.63;;;8.00;99.70;;;;;;5030918;28;20982;-68
2021/11/14 08:17:43;;;;;;;80.57;20.97;;;8.10;99.70;;;;;;5030913;28;20535;-68
2021/11/14 08:20:11;;;;;;;83.07;22.07;;;8.10;99.70;;;;;;5030758;28;20456;-68
2021/11/14 08:22:38;;;;;;;86.47;21.90;;;8.10;99.70;;;;;;5031028;28;20483;-68
2021/11/14 08:25:08;;;;;;;80.53;22.07;;;8.20;99.70;;;;;;5030838;28;20452;-67
2021/11/14 08:27:36;;;;;;;81.43;20.07;;;8.20;99.70;;;;;;5030726;28;20448;-67
2021/11/14 08:30:06;;;;;;;79.20;22.77;;;8.20;99.70;;;;;;5032362;28;20463;-68
2021/11/14 08:32:33;;;;;;;76.70;21.13;;;8.30;99.70;;;;;;5038502;28;20963;-68
2021/11/14 08:35:00;;;;;;;81.93;22.60;;;8.30;99.70;;;;;;5037418;28;20467;-67
2021/11/14 08:37:27;;;;;;;83.83;22.57;;;8.30;99.70;;;;;;5034767;28;20448;-68
2021/11/14 08:39:53;;;;;;;78.23;23.17;;;8.30;99.70;;;;;;5033110;28;20496;-68
2021/11/14 08:42:23;;;;;;;81.17;26.17;;;8.30;99.70;;;;;;5038867;28;20472;-68
2021/11/14 08:44:51;;;;;;;84.67;30.33;;;8.30;99.70;;;;;;5030381;28;20445;-68
2021/11/14 08:47:18;;;;;;;83.90;30.37;;;8.30;99.70;;;;;;5030011;28;20487;-68
2021/11/14 08:49:44;;;;;;;85.10;28.53;;;8.40;99.70;;;;;;5030325;28;20479;-67
2021/11/14 08:52:12;;;;;;;77.03;28.00;;;8.50;99.70;;;;;;5030424;28;20572;-67
2021/11/14 08:54:39;;;;;;;84.00;27.87;;;8.50;99.70;;;;;;5030492;28;20539;-67
2021/11/14 08:57:07;;;;;;;78.47;26.73;;;8.60;99.70;;;;;;5030335;28;20507;-68
2021/11/14 08:59:35;;;;;;;94.30;30.13;;;8.60;99.70;;;;;;5046280;28;20468;-68
2021/11/14 09:02:03;;;;;;;77.80;25.23;;;8.60;99.70;;;;;;5040806;28;20848;-68
2021/11/14 09:04:30;;;;;;;75.50;24.80;;;8.60;99.70;;;;;;5038893;28;20455;-68
2021/11/14 09:06:59;;;;;;;73.60;22.87;;;8.60;99.70;;;;;;5029026;28;20526;-68
2021/11/14 09:09:26;;;;;;;75.90;23.73;;;8.60;99.70;;;;;;5030385;28;20452;-68
2021/11/14 09:11:52;;;;;;;75.50;20.90;;;8.70;99.70;;;;;;5029638;28;20472;-68
2021/11/14 09:14:19;;;;;;;80.00;22.37;;;8.60;99.70;;;;;;5036012;28;20448;-68
2021/11/14 09:16:49;;;;;;;73.70;19.37;;;8.70;99.70;;;;;;5029407;28;20444;-68
2021/11/14 09:19:16;;;;;;;78.37;20.53;;;8.60;99.70;;;;;;5030157;28;20437;-68
2021/11/14 09:21:43;;;;;;;74.57;18.67;;;8.60;99.70;;;;;;5029675;28;20464;-67
2021/11/14 09:24:10;;;;;;;80.80;20.20;;;8.70;99.70;;;;;;5029705;28;20444;-67
2021/11/14 09:26:38;;;;;;;82.17;22.07;;;8.60;99.70;;;;;;5029622;28;20893;-68
2021/11/14 09:29:05;;;;;;;82.23;21.17;;;8.70;99.70;;;;;;5029877;28;20491;-67
2021/11/14 09:31:34;;;;;;;81.10;20.17;;;8.70;99.70;;;;;;5029762;28;20469;-68
2021/11/14 09:34:02;;;;;;;85.57;19.83;;;8.70;99.70;;;;;;5032926;28;20464;-68
2021/11/14 09:36:31;;;;;;;83.37;21.37;;;8.80;99.70;;;;;;5048297;28;20440;-68
2021/11/14 09:39:01;;;;;;;84.00;21.60;;;8.80;99.70;;;;;;5049219;28;20529;-68
2021/11/14 09:41:28;;;;;;;84.67;22.30;;;8.80;99.70;;;;;;5049742;28;20474;-68
2021/11/14 09:43:55;;;;;;;84.50;22.00;;;8.90;99.70;;;;;;5050602;28;20458;-67
2021/11/14 09:46:21;;;;;;;78.83;20.20;;;8.90;99.70;;;;;;5053294;28;20514;-67
2021/11/14 09:48:49;;;;;;;81.20;20.50;;;8.90;99.70;;;;;;5053710;28;20471;-68
2021/11/14 09:51:18;;;;;;;84.70;21.23;;;9.00;99.70;;;;;;5052613;28;20463;-68
2021/11/14 09:53:46;;;;;;;81.30;20.17;;;9.10;99.70;;;;;;5046927;28;20467;-68
2021/11/14 09:56:13;;;;;;;84.70;19.87;;;9.10;99.70;;;;;;5052997;28;20443;-68
2021/11/14 09:58:40;;;;;;;87.43;23.10;;;9.10;99.70;;;;;;5053514;28;20866;-67
2021/11/14 10:01:09;;;;;;;94.53;25.90;;;9.20;99.70;;;;;;5050593;28;20495;-68
2021/11/14 10:03:36;;;;;;;83.80;25.40;;;9.20;99.70;;;;;;5051513;28;20468;-68
2021/11/14 10:06:03;;;;;;;89.27;23.47;;;9.20;99.70;;;;;;5041856;28;20888;-68
2021/11/14 10:08:38;;;;;;;89.10;28.73;;;9.20;99.70;;;;;;5046928;28;20798;-68
2021/11/14 10:11:05;;;;;;;90.93;30.83;;;9.20;99.70;;;;;;5048779;28;20471;-65
2021/11/14 10:13:34;;;;;;;93.50;32.57;;;9.20;99.70;;;;;;5052362;28;20440;-67
2021/11/14 10:16:09;;;;;;;91.93;31.27;;;9.20;99.70;;;;;;5052948;28;20440;-66
2021/11/14 10:18:36;;;;;;;91.53;37.33;;;9.20;99.70;;;;;;5052994;28;20435;-67
2021/11/14 10:21:03;;;;;;;95.93;38.00;;;9.20;99.70;;;;;;5046791;28;20459;-68
2021/11/14 10:23:32;;;;;;;99.23;37.43;;;9.20;99.70;;;;;;5051355;28;20501;-67
2021/11/14 10:26:04;;;;;;;93.50;39.07;;;9.30;99.70;;;;;;5052927;28;20533;-67
2021/11/14 10:28:31;;;;;;;99.30;40.23;;;9.40;99.70;;;;;;5052512;28;20444;-67
2021/11/14 10:30:59;;;;;;;100.10;44.23;;;9.40;99.70;;;;;;5052660;28;20443;-68
2021/11/14 10:33:26;;;;;;;101.03;44.67;;;9.30;99.70;;;;;;5052691;28;20447;-68
2021/11/14 10:35:56;;;;;;;100.77;45.77;;;9.30;99.70;;;;;;5052509;28;20565;-67
2021/11/14 10:38:24;;;;;;;92.40;42.37;;;9.40;99.70;;;;;;5052309;28;20855;-67
2021/11/14 10:40:54;;;;;;;85.83;36.20;;;9.40;99.70;;;;;;5051976;28;20488;-68
2021/11/14 10:43:23;;;;;;;89.93;38.60;;;9.40;99.70;;;;;;5052407;28;20447;-68
2021/11/14 10:45:52;;;;;;;90.80;41.53;;;9.50;99.70;;;;;;5052067;28;20889;-68
2021/11/14 10:48:20;;;;;;;84.07;33.33;;;9.40;99.70;;;;;;5052241;28;20817;-68
2021/11/14 10:50:48;;;;;;;88.57;39.43;;;9.40;99.70;;;;;;5051812;28;20943;-67
2021/11/14 10:53:17;;;;;;;92.80;37.07;;;9.40;99.70;;;;;;5052189;28;20818;-68
2021/11/14 10:55:46;;;;;;;94.03;41.90;;;9.40;99.70;;;;;;5051533;28;20450;-68
2021/11/14 10:58:15;;;;;;;88.40;35.80;;;9.40;99.70;;;;;;5051860;28;20447;-67
2021/11/14 11:00:44;;;;;;;87.57;38.03;;;9.50;99.70;;;;;;5052460;28;20451;-66
2021/11/14 11:03:12;;;;;;;85.37;38.70;;;9.50;99.70;;;;;;5038126;28;21146;-66
2021/11/14 11:05:39;;;;;;;89.47;42.40;;;9.50;99.70;;;;;;5034241;28;20891;-66
2021/11/14 11:08:08;;;;;;;92.50;45.83;;;9.60;99.70;;;;;;5046573;28;20488;-68
2021/11/14 11:10:37;;;;;;;86.73;41.70;;;9.70;99.70;;;;;;5046717;28;20448;-67
2021/11/14 11:13:06;;;;;;;85.30;41.53;;;9.60;99.70;;;;;;5048397;28;21052;-67
2021/11/14 11:15:39;;;;;;;88.97;41.10;;;9.60;99.70;;;;;;5047618;28;20444;-68
2021/11/14 11:18:09;;;;;;;97.60;47.70;;;9.60;99.70;;;;;;5047439;28;20463;-67
2021/11/14 11:20:36;;;;;;;90.00;43.33;;;9.60;99.70;;;;;;5050711;28;20962;-68
2021/11/14 11:23:10;;;;;;;92.20;43.63;;;9.70;99.70;;;;;;5051846;28;20475;-68
2021/11/14 11:25:40;;;;;;;85.50;40.47;;;9.50;99.70;;;;;;5051435;28;20946;-68
2021/11/14 11:28:09;;;;;;;87.60;41.57;;;9.50;99.70;;;;;;5047126;28;20559;-68
2021/11/14 11:30:40;;;;;;;88.37;39.30;;;9.60;99.70;;;;;;5050463;28;20978;-68
2021/11/14 11:33:09;;;;;;;87.60;40.77;;;9.60;99.70;;;;;;5051826;28;20459;-67
2021/11/14 11:35:36;;;;;;;95.23;42.73;;;9.70;99.70;;;;;;5051525;28;20448;-68
2021/11/14 11:38:04;;;;;;;82.80;36.53;;;9.60;99.70;;;;;;5051423;28;20509;-68
2021/11/14 11:40:31;;;;;;;81.87;37.70;;;9.70;99.70;;;;;;5051558;28;20480;-69
2021/11/14 11:42:58;;;;;;;88.43;37.87;;;9.70;99.70;;;;;;5049594;28;20850;-68
2021/11/14 11:45:34;;;;;;;85.70;41.03;;;9.70;99.70;;;;;;5049852;28;20460;-68
2021/11/14 11:48:06;;;;;;;85.30;41.70;;;9.70;99.70;;;;;;5050148;28;20490;-68
2021/11/14 11:50:35;;;;;;;85.53;39.10;;;9.70;99.70;;;;;;5051599;28;20452;-68
2021/11/14 11:53:03;;;;;;;89.20;40.50;;;9.70;99.70;;;;;;5051178;28;20471;-69
2021/11/14 11:55:33;;;;;;;83.77;38.47;;;9.90;99.70;;;;;;5051362;28;20931;-69
2021/11/14 11:58:12;;;;;;;83.57;41.23;;;10.00;99.70;;;;;;5050786;28;20444;-68
2021/11/14 12:00:54;;;;;;;79.50;34.33;;;10.10;99.70;;;;;;5051227;28;20947;-69
2021/11/14 12:03:29;;;;;;;85.27;38.67;;;10.10;99.70;;;;;;5041259;28;20463;-69
2021/11/14 12:05:57;;;;;;;81.33;38.93;;;10.10;99.70;;;;;;5040799;28;20838;-68
2021/11/14 12:08:38;;;;;;;82.70;40.33;;;10.20;99.70;;;;;;5036963;28;20492;-69
2021/11/14 12:11:09;;;;;;;85.20;39.50;;;10.30;99.70;;;;;;5030904;28;20469;-68
2021/11/14 12:13:44;;;;;;;83.23;34.70;;;10.30;99.70;;;;;;5029743;28;20452;-69
2021/11/14 12:16:11;;;;;;;81.97;38.07;;;10.20;99.70;;;;;;5030527;28;20452;-69
2021/11/14 12:18:40;;;;;;;81.03;37.47;;;10.30;99.70;;;;;;5030875;28;20453;-69
2021/11/14 12:21:19;;;;;;;81.10;36.70;;;10.30;99.70;;;;;;5030437;28;21006;-69
2021/11/14 12:23:55;;;;;;;84.27;36.47;;;10.30;99.70;;;;;;5030669;28;20526;-69
2021/11/14 12:26:28;;;;;;;83.63;39.43;;;10.30;99.70;;;;;;5030255;28;20448;-69
2021/11/14 12:28:57;;;;;;;82.87;38.80;;;10.10;99.70;;;;;;5030715;28;20461;-69
2021/11/14 12:31:26;;;;;;;84.10;38.80;;;10.00;99.70;;;;;;5030352;28;20473;-69
2021/11/14 12:33:55;;;;;;;80.57;36.73;;;9.90;99.70;;;;;;5030717;28;20445;-69
2021/11/14 12:36:33;;;;;;;80.40;37.83;;;9.90;99.70;;;;;;5030088;28;20963;-69
2021/11/14 12:39:08;;;;;;;83.10;38.80;;;9.90;99.70;;;;;;5030629;28;20515;-69
2021/11/14 12:41:35;;;;;;;83.00;42.03;;;9.80;99.70;;;;;;5030308;28;20468;-69
2021/11/14 12:44:02;;;;;;;86.73;43.13;;;9.80;99.70;;;;;;5030384;28;20452;-69
2021/11/14 12:46:29;;;;;;;85.97;41.80;;;9.80;99.70;;;;;;5030155;28;20456;-69
2021/11/14 12:48:56;;;;;;;87.93;44.50;;;9.80;99.70;;;;;;5030277;28;20883;-68
2021/11/14 12:51:26;;;;;;;86.90;43.33;;;9.80;99.70;;;;;;5030429;28;20469;-69
2021/11/14 12:53:55;;;;;;;87.67;42.70;;;9.90;99.70;;;;;;5030039;28;20449;-69
2021/11/14 12:56:29;;;;;;;89.77;46.77;;;10.00;99.70;;;;;;5030123;28;20479;-69
2021/11/14 12:58:58;;;;;;;93.37;49.60;;;9.90;99.70;;;;;;5030154;28;20456;-68
2021/11/14 13:01:27;;;;;;;88.80;48.17;;;10.00;99.70;;;;;;5030237;28;20487;-69
2021/11/14 13:03:55;;;;;;;89.47;43.13;;;10.00;99.70;;;;;;5031722;28;20471;-69
2021/11/14 13:06:25;;;;;;;90.63;46.70;;;10.10;99.70;;;;;;5049331;28;20443;-69
2021/11/14 13:08:52;;;;;;;89.57;43.80;;;10.00;99.70;;;;;;5049617;28;20440;-69
2021/11/14 13:11:23;;;;;;;90.27;43.63;;;10.00;99.70;;;;;;5049307;28;20506;-68
2021/11/14 13:13:50;;;;;;;84.50;42.90;;;10.00;99.70;;;;;;5048881;28;20444;-69
2021/11/14 13:16:21;;;;;;;87.97;42.10;;;10.00;99.70;;;;;;5049639;28;20447;-69
2021/11/14 13:18:48;;;;;;;95.37;46.80;;;10.10;99.70;;;;;;5049259;28;20474;-69
2021/11/14 13:21:17;;;;;;;88.57;43.43;;;10.10;99.70;;;;;;5048805;28;20454;-69
2021/11/14 13:23:57;;;;;;;91.23;46.07;;;10.10;99.70;;;;;;5049932;28;20454;-68
2021/11/14 13:26:30;;;;;;;87.83;40.80;;;10.10;99.70;;;;;;5048353;28;20455;-69
2021/11/14 13:28:59;;;;;;;86.10;42.03;;;10.10;99.70;;;;;;5030004;28;20444;-69
2021/11/14 13:31:26;;;;;;;89.73;44.00;;;10.10;99.70;;;;;;5029540;28;20465;-69
2021/11/14 13:34:02;;;;;;;90.80;42.13;;;10.10;99.70;;;;;;5029879;28;20962;-69
2021/11/14 13:36:29;;;;;;;86.00;39.50;;;10.00;99.70;;;;;;5029291;28;20448;-69
2021/11/14 13:38:57;;;;;;;94.00;41.70;;;10.00;99.70;;;;;;5044059;28;20808;-69
2021/11/14 13:41:24;;;;;;;85.33;39.27;;;10.00;99.70;;;;;;5049670;28;20970;-69
2021/11/14 13:43:52;;;;;;;93.90;45.37;;;10.10;99.70;;;;;;5047066;28;20463;-69
2021/11/14 13:46:19;;;;;;;83.60;38.70;;;10.10;99.70;;;;;;5047230;28;20692;-69
2021/11/14 13:48:50;;;;;;;89.57;39.57;;;10.00;99.70;;;;;;5043811;28;20488;-69
2021/11/14 13:51:17;;;;;;;84.10;39.60;;;10.10;99.70;;;;;;5050691;22;20499;-68
2021/11/14 13:53:43;;;;;;;81.97;36.20;;;10.10;99.70;;;;;;5045984;28;20452;-69
2021/11/14 13:56:12;;;;;;;90.30;40.87;;;10.00;99.70;;;;;;5048241;28;20443;-68
2021/11/14 13:58:40;;;;;;;83.77;40.27;;;10.00;99.70;;;;;;5048438;28;20451;-68
2021/11/14 14:01:09;;;;;;;86.10;40.63;;;10.00;99.70;;;;;;5049315;28;20468;-69
2021/11/14 14:03:41;;;;;;;87.40;41.57;;;10.00;99.70;;;;;;5049524;28;20470;-69
2021/11/14 14:06:09;;;;;;;93.67;47.60;;;10.00;99.70;;;;;;5041316;28;20455;-68
2021/11/14 14:08:37;;;;;;;86.17;44.27;;;10.00;99.70;;;;;;5027962;28;21003;-68
2021/11/14 14:11:06;;;;;;;89.87;44.33;;;9.90;99.70;;;;;;5041778;28;21034;-69
2021/11/14 14:13:34;;;;;;;86.87;44.17;;;9.90;99.70;;;;;;5047047;28;20482;-69
2021/11/14 14:16:05;;;;;;;84.67;42.50;;;9.90;99.70;;;;;;5047727;28;20439;-67
2021/11/14 14:18:37;;;;;;;92.90;50.37;;;9.80;99.70;;;;;;5048232;28;20454;-69
2021/11/14 14:21:05;;;;;;;90.63;47.73;;;9.90;99.70;;;;;;5039089;28;20541;-69
2021/11/14 14:23:37;;;;;;;86.50;48.40;;;9.90;99.70;;;;;;5048886;28;20446;-68
2021/11/14 14:26:05;;;;;;;87.20;45.43;;;9.90;99.70;;;;;;5049049;28;20446;-67
2021/11/14 14:28:34;;;;;;;83.43;45.77;;;9.90;99.70;;;;;;5040569;28;20483;-69
2021/11/14 14:31:01;;;;;;;86.23;39.37;;;9.90;99.70;;;;;;5047443;28;20471;-68
2021/11/14 14:33:29;;;;;;;78.70;33.67;;;9.80;99.70;;;;;;5052744;28;20669;-69
2021/11/14 14:35:59;;;;;;;79.50;31.03;;;9.90;99.70;;;;;;5048666;28;20449;-69
2021/11/14 14:38:29;;;;;;;75.43;30.10;;;9.90;99.70;;;;;;5032870;28;20549;-69
2021/11/14 14:40:57;;;;;;;74.70;25.03;;;9.90;99.70;;;;;;5038886;28;20468;-68
2021/11/14 14:43:29;;;;;;;73.80;23.33;;;9.80;99.70;;;;;;5052834;28;20443;-68
2021/11/14 14:46:01;;;;;;;74.93;30.43;;;9.80;99.70;;;;;;5052619;28;20443;-68
2021/11/14 14:48:31;;;;;;;69.20;24.07;;;9.80;99.70;;;;;;5052760;28;20479;-68
2021/11/14 14:50:59;;;;;;;74.70;24.53;;;9.80;99.70;;;;;;5052079;28;20561;-68
2021/11/14 14:53:29;;;;;;;72.47;26.53;;;9.80;99.70;;;;;;5040429;28;20453;-69
2021/11/14 14:55:56;;;;;;;72.63;28.33;;;9.80;99.70;;;;;;5042305;28;20444;-69
2021/11/14 14:58:23;;;;;;;68.67;22.50;;;9.80;99.70;;;;;;5048555;28;20460;-69
2021/11/14 15:00:49;;;;;;;73.33;29.93;;;9.70;99.70;;;;;;5049498;28;20900;-69
2021/11/14 15:03:17;;;;;;;78.57;36.47;;;9.70;99.70;;;;;;5052151;28;20470;-69
2021/11/14 15:05:46;;;;;;;73.43;35.63;;;9.70;99.70;;;;;;5048926;28;20451;-69
2021/11/14 15:08:15;;;;;;;75.80;31.23;;;9.80;99.70;;;;;;5046554;28;20475;-69
2021/11/14 15:10:47;;;;;;;74.10;30.23;;;9.70;99.70;;;;;;5051413;28;21041;-68
2021/11/14 15:13:14;;;;;;;71.03;27.23;;;9.70;99.70;;;;;;5050573;28;20447;-69
2021/11/14 15:15:41;;;;;;;75.83;27.57;;;9.70;99.70;;;;;;5050290;28;20502;-68
2021/11/14 15:18:10;;;;;;;71.67;27.63;;;9.60;99.70;;;;;;5047948;28;20446;-69
2021/11/14 15:20:41;;;;;;;71.80;28.77;;;9.60;99.70;;;;;;5032206;28;20452;-68
2021/11/14 15:23:10;;;;;;;73.40;31.67;;;9.70;99.70;;;;;;5051505;28;20452;-68
2021/11/14 15:25:40;;;;;;;72.10;27.13;;;9.70;99.70;;;;;;5040098;28;20801;-68
2021/11/14 15:28:09;;;;;;;73.07;26.57;;;9.70;99.70;;;;;;5031349;28;20476;-68
2021/11/14 15:30:40;;;;;;;76.13;30.90;;;9.70;99.70;;;;;;5042552;28;20955;-69
2021/11/14 15:33:07;;;;;;;79.70;26.60;;;9.70;99.70;;;;;;5045199;28;21813;-68
2021/11/14 15:35:34;;;;;;;69.90;20.70;;;9.80;99.70;;;;;;5044823;28;20986;-69
2021/11/14 15:38:02;;;;;;;74.57;26.23;;;9.70;99.70;;;;;;5044055;28;20538;-68
2021/11/14 15:40:30;;;;;;;74.97;25.63;;;9.70;99.70;;;;;;5046924;28;20460;-69
2021/11/14 15:42:58;;;;;;;74.13;26.93;;;9.70;99.70;;;;;;5041923;28;20444;-69
2021/11/14 15:45:29;;;;;;;78.93;29.43;;;9.70;99.70;;;;;;5040064;28;20447;-69
2021/11/14 15:47:56;;;;;;;79.90;29.63;;;9.60;99.70;;;;;;5040734;28;20538;-68
2021/11/14 15:50:24;;;;;;;75.43;28.30;;;9.70;99.70;;;;;;5041505;28;20450;-69
2021/11/14 15:52:51;;;;;;;81.73;36.87;;;9.70;99.70;;;;;;5041493;28;20906;-69
2021/11/14 15:55:22;;;;;;;72.87;27.50;;;9.70;99.70;;;;;;5039649;28;20448;-70
2021/11/14 15:57:50;;;;;;;71.73;31.53;;;9.70;99.70;;;;;;5044920;28;20436;-69
2021/11/14 16:00:20;;;;;;;72.20;27.67;;;9.70;99.70;;;;;;5042876;28;20455;-69
2021/11/14 16:02:47;;;;;;;77.43;35.23;;;9.70;99.70;;;;;;5048931;28;20464;-69
2021/11/14 16:05:15;;;;;;;74.53;33.57;;;9.70;99.70;;;;;;5044235;28;20470;-69
2021/11/14 16:07:42;;;;;;;72.50;29.43;;;9.70;99.70;;;;;;5037435;28;20485;-69
2021/11/14 16:10:11;;;;;;;71.87;28.47;;;9.70;99.70;;;;;;5050283;28;20460;-69
2021/11/14 16:12:40;;;;;;;72.17;28.93;;;9.60;99.70;;;;;;5046401;28;20902;-69
2021/11/14 16:15:08;;;;;;;75.40;35.27;;;9.50;99.70;;;;;;5040072;28;20467;-70
2021/11/14 16:17:36;;;;;;;71.13;32.73;;;9.60;99.70;;;;;;5043363;28;20801;-70
2021/11/14 16:20:03;;;;;;;68.57;26.57;;;9.60;99.70;;;;;;5035571;28;20837;-70
2021/11/14 16:22:30;;;;;;;69.10;27.43;;;9.60;99.70;;;;;;5033213;28;20974;-69
2021/11/14 16:24:57;;;;;;;72.93;33.30;;;9.50;99.70;;;;;;5050320;28;20447;-70
2021/11/14 16:27:23;;;;;;;65.37;23.33;;;9.50;99.70;;;;;;5050070;28;20448;-69
2021/11/14 16:29:51;;;;;;;68.50;23.70;;;9.60;99.70;;;;;;5048811;28;20440;-69
2021/11/14 16:32:18;;;;;;;74.03;34.67;;;9.50;99.70;;;;;;5048789;28;20475;-70
2021/11/14 16:34:46;;;;;;;79.90;33.60;;;9.50;99.70;;;;;;5049301;28;20451;-71
2021/11/14 16:37:13;;;;;;;75.17;39.27;;;9.50;99.70;;;;;;5039495;28;20448;-71
2021/11/14 16:39:39;;;;;;;74.87;34.40;;;9.50;99.70;;;;;;5030513;28;20452;-70
2021/11/14 16:42:06;;;;;;;72.60;30.57;;;9.50;99.70;;;;;;5049620;28;20464;-69
2021/11/14 16:44:34;;;;;;;70.30;25.07;;;9.50;99.70;;;;;;5043093;28;20448;-70
2021/11/14 16:47:02;;;;;;;72.17;31.93;;;9.50;99.70;;;;;;5030727;28;20807;-69
2021/11/14 16:49:29;;;;;;;72.40;30.67;;;9.40;99.70;;;;;;5031681;28;21026;-71
2021/11/14 16:51:56;;;;;;;69.50;26.60;;;9.50;99.70;;;;;;5034129;28;21289;-69
2021/11/14 16:54:23;;;;;;;69.63;26.23;;;9.50;99.70;;;;;;5047473;28;20452;-70
2021/11/14 16:56:50;;;;;;;71.70;27.73;;;9.50;99.70;;;;;;5048518;28;20444;-69
2021/11/14 16:59:17;;;;;;;69.33;24.17;;;9.50;99.70;;;;;;5041922;28;20502;-70
2021/11/14 17:01:44;;;;;;;68.63;24.83;;;9.50;99.70;;;;;;5031137;28;20526;-69
2021/11/14 17:04:12;;;;;;;68.10;23.97;;;9.50;99.70;;;;;;5029553;28;20448;-70
2021/11/14 17:06:39;;;;;;;69.13;26.70;;;9.50;99.70;;;;;;5033283;28;20460;-70
2021/11/14 17:09:06;;;;;;;72.00;29.53;;;9.50;99.70;;;;;;5044265;28;21028;-70
2021/11/14 17:11:33;;;;;;;70.30;33.13;;;9.50;99.70;;;;;;5048278;28;20471;-70
2021/11/14 17:14:00;;;;;;;70.73;31.13;;;9.50;99.70;;;;;;5047068;28;20454;-69
2021/11/14 17:16:28;;;;;;;70.60;32.70;;;9.50;99.70;;;;;;5037373;28;20464;-70
2021/11/14 17:18:56;;;;;;;69.63;32.23;;;9.50;99.70;;;;;;5047184;28;20546;-70
2021/11/14 17:21:26;;;;;;;70.90;31.33;;;9.50;99.70;;;;;;5043447;28;20480;-69
2021/11/14 17:23:54;;;;;;;70.40;30.13;;;9.50;99.70;;;;;;5042002;28;20956;-72
2021/11/14 17:26:22;;;;;;;69.97;29.10;;;9.50;99.70;;;;;;5041123;28;20452;-70
2021/11/14 17:28:49;;;;;;;70.67;30.23;;;9.50;99.70;;;;;;5035033;28;20491;-69
2021/11/14 17:31:17;;;;;;;70.03;27.43;;;9.50;99.70;;;;;;5043620;28;20483;-70
2021/11/14 17:33:44;;;;;;;67.23;28.10;;;9.40;99.70;;;;;;5029225;28;20448;-70
2021/11/14 17:36:11;;;;;;;70.53;27.33;;;9.50;99.70;;;;;;5041760;28;20451;-69
2021/11/14 17:38:40;;;;;;;70.23;30.10;;;9.50;99.70;;;;;;5047391;28;20448;-70
2021/11/14 17:41:10;;;;;;;69.53;31.13;;;9.40;99.70;;;;;;5047698;28;20526;-71